createdAt,value
2022-10-14T00:00:17.978Z,101103.29
2022-10-14T00:01:22.245Z,101098.95
2022-10-14T00:02:24.595Z,101099.84
2022-10-14T00:03:26.887Z,101099.80
2022-10-14T00:04:29.479Z,101106.83
2022-10-14T00:05:31.973Z,101105.38
2022-10-14T00:06:34.653Z,101104.02
2022-10-14T00:07:37.366Z,101109.05
2022-10-14T00:08:40.277Z,101104.31
2022-10-14T00:09:42.173Z,101102.44
2022-10-14T00:10:44.169Z,101103.38
2022-10-14T00:11:46.151Z,101101.89
2022-10-14T00:12:48.198Z,101111.55
2022-10-14T00:13:52.641Z,101105.33
2022-10-14T00:14:55.386Z,101108.87
2022-10-14T00:15:57.301Z,101106.23
2022-10-14T00:16:59.300Z,101103.73
2022-10-14T00:18:01.181Z,101104.70
2022-10-14T00:19:05.167Z,101107.29
2022-10-14T00:20:08.375Z,101102.91
2022-10-14T00:21:10.418Z,101101.37
2022-10-14T00:22:12.494Z,101109.08
2022-10-14T00:23:14.389Z,101098.45
2022-10-14T00:24:16.763Z,101101.93
2022-10-14T00:25:18.649Z,101099.38
2022-10-14T00:26:26.026Z,101087.91
2022-10-14T00:27:27.944Z,101095.81
2022-10-14T00:28:30.355Z,101091.34
2022-10-14T00:29:32.454Z,101087.05
2022-10-14T00:30:34.446Z,101091.38
2022-10-14T00:31:36.484Z,101100.19
2022-10-14T00:32:38.373Z,101089.64
2022-10-14T00:33:40.474Z,101083.65
2022-10-14T00:34:43.386Z,101098.45
2022-10-14T00:35:53.995Z,101102.74
2022-10-14T00:36:56.056Z,101089.64
2022-10-14T00:37:58.656Z,101107.20
2022-10-14T00:39:00.888Z,101101.09
2022-10-14T00:40:04.672Z,101100.19
2022-10-14T00:41:07.084Z,101100.19
2022-10-14T00:42:14.645Z,101101.93
2022-10-14T00:43:16.688Z,101104.61
2022-10-14T00:44:22.660Z,101097.55
2022-10-14T00:45:24.865Z,101095.81
2022-10-14T00:46:30.386Z,101094.06
2022-10-14T00:47:33.159Z,101090.50
2022-10-14T00:48:35.433Z,101097.55
2022-10-14T00:49:40.667Z,101086.11
2022-10-14T00:50:44.720Z,101089.59
2022-10-14T00:51:50.416Z,101094.91
2022-10-14T00:52:52.540Z,101088.79
2022-10-14T00:53:55.522Z,101089.64
2022-10-14T00:55:06.809Z,101092.23
2022-10-14T00:56:10.421Z,101093.05
2022-10-14T00:57:13.462Z,101086.16
2022-10-14T00:58:15.905Z,101082.62
2022-10-14T00:59:18.449Z,101087.91
2022-10-14T01:00:21.978Z,101087.91
2022-10-14T01:01:24.375Z,101080.87
2022-10-14T01:02:26.497Z,101082.59
2022-10-14T01:03:28.519Z,101079.95
2022-10-14T01:04:30.968Z,101081.73
2022-10-14T01:05:36.637Z,101078.16
2022-10-14T01:06:48.145Z,101078.16
2022-10-14T01:08:06.060Z,101074.72
2022-10-14T01:09:26.518Z,101073.91
2022-10-14T01:10:35.397Z,101080.83
2022-10-14T01:12:23.466Z,101081.64
2022-10-14T01:14:26.463Z,101072.58
2022-10-14T01:15:32.286Z,101075.56
2022-10-14T01:16:46.736Z,101071.09
2022-10-14T01:18:04.210Z,101073.83
2022-10-14T01:19:10.173Z,101073.64
2022-10-14T01:20:39.323Z,101070.08
2022-10-14T01:22:03.120Z,101073.56
2022-10-14T01:23:11.855Z,101065.52
2022-10-14T01:24:23.608Z,101068.10
2022-10-14T01:25:46.503Z,101068.10
2022-10-14T01:26:58.345Z,101072.58
2022-10-14T01:28:30.190Z,101067.56
2022-10-14T01:30:08.207Z,101070.29
2022-10-14T01:31:16.748Z,101073.83
2022-10-14T01:33:36.573Z,101070.08
2022-10-14T01:36:11.031Z,101071.81
2022-10-14T01:37:16.819Z,101074.67
2022-10-14T01:38:22.493Z,101075.73
2022-10-14T01:39:34.500Z,101073.91
2022-10-14T01:40:49.616Z,101071.99
2022-10-14T01:42:07.194Z,101075.47
2022-10-14T01:43:11.846Z,101070.20
2022-10-14T01:44:17.454Z,101065.87
2022-10-14T01:45:22.802Z,101061.45
2022-10-14T01:46:26.905Z,101064.08
2022-10-14T01:47:32.287Z,101060.77
2022-10-14T01:48:37.902Z,101068.89
2022-10-14T01:49:43.597Z,101068.52
2022-10-14T01:50:49.252Z,101073.98
2022-10-14T01:51:54.936Z,101066.77
2022-10-14T01:53:13.036Z,101069.27
2022-10-14T01:54:18.754Z,101066.51
2022-10-14T01:55:24.460Z,101062.01
2022-10-14T01:56:30.356Z,101063.63
2022-10-14T01:57:35.562Z,101059.38
2022-10-14T01:58:39.853Z,101059.33
2022-10-14T01:59:43.485Z,101060.09
2022-10-14T02:00:45.654Z,101058.27
2022-10-14T02:01:47.689Z,101065.10
2022-10-14T02:02:49.901Z,101065.19
2022-10-14T02:03:51.784Z,101063.41
2022-10-14T02:04:53.659Z,101068.72
2022-10-14T02:06:02.427Z,101066.09
2022-10-14T02:07:17.267Z,101074.00
2022-10-14T02:08:35.277Z,101068.68
2022-10-14T02:10:08.244Z,101064.27
2022-10-14T02:11:17.012Z,101059.83
2022-10-14T02:12:28.754Z,101062.52
2022-10-14T02:13:54.588Z,101064.17
2022-10-14T02:15:15.180Z,101066.00
2022-10-14T02:16:32.875Z,101058.98
2022-10-14T02:17:44.790Z,101062.55
2022-10-14T02:19:22.248Z,101065.19
2022-10-14T02:20:31.054Z,101066.00
2022-10-14T02:21:39.542Z,101064.13
2022-10-14T02:22:45.435Z,101060.55
2022-10-14T02:23:51.420Z,101059.74
2022-10-14T02:24:57.154Z,101059.66
2022-10-14T02:26:01.249Z,101057.82
2022-10-14T02:27:06.980Z,101054.25
2022-10-14T02:28:12.663Z,101053.36
2022-10-14T02:29:17.504Z,101060.45
2022-10-14T02:30:20.983Z,101058.72
2022-10-14T02:31:25.847Z,101055.27
2022-10-14T02:32:29.012Z,101051.70
2022-10-14T02:33:34.696Z,101057.02
2022-10-14T02:34:37.444Z,101059.44
2022-10-14T02:35:41.380Z,101057.91
2022-10-14T02:36:45.711Z,101063.36
2022-10-14T02:37:49.380Z,101050.27
2022-10-14T02:38:54.811Z,101053.97
2022-10-14T02:40:15.507Z,101053.92
2022-10-14T02:41:20.466Z,101055.72
2022-10-14T02:42:22.777Z,101046.14
2022-10-14T02:43:25.396Z,101050.53
2022-10-14T02:44:27.483Z,101052.31
2022-10-14T02:45:29.575Z,101047.89
2022-10-14T02:46:32.949Z,101055.84
2022-10-14T02:47:34.971Z,101057.59
2022-10-14T02:48:37.366Z,101051.38
2022-10-14T02:49:39.288Z,101061.96
2022-10-14T02:50:41.692Z,101051.46
2022-10-14T02:51:43.779Z,101052.31
2022-10-14T02:52:46.508Z,101057.63
2022-10-14T02:53:48.581Z,101059.28
2022-10-14T02:54:50.468Z,101066.34
2022-10-14T02:55:52.329Z,101058.27
2022-10-14T02:56:54.608Z,101057.28
2022-10-14T02:57:56.661Z,101063.36
2022-10-14T02:58:59.200Z,101061.49
2022-10-14T03:00:01.409Z,101056.35
2022-10-14T03:01:03.351Z,101056.35
2022-10-14T03:02:06.702Z,101058.17
2022-10-14T03:03:09.105Z,101064.27
2022-10-14T03:04:11.078Z,101063.27
2022-10-14T03:05:13.119Z,101061.83
2022-10-14T03:06:15.338Z,101066.22
2022-10-14T03:07:17.436Z,101068.81
2022-10-14T03:08:19.482Z,101069.78
2022-10-14T03:09:21.339Z,101067.11
2022-10-14T03:10:23.536Z,101060.09
2022-10-14T03:11:25.413Z,101047.26
2022-10-14T03:12:27.319Z,101067.87
2022-10-14T03:13:29.732Z,101060.95
2022-10-14T03:14:31.943Z,101066.17
2022-10-14T03:15:33.936Z,101061.75
2022-10-14T03:16:36.031Z,101067.91
2022-10-14T03:17:38.020Z,101064.38
2022-10-14T03:18:39.905Z,101060.98
2022-10-14T03:19:42.324Z,101064.52
2022-10-14T03:20:45.488Z,101068.72
2022-10-14T03:21:47.455Z,101061.63
2022-10-14T03:22:49.565Z,101065.87
2022-10-14T03:23:51.518Z,101069.45
2022-10-14T03:24:53.733Z,101060.77
2022-10-14T03:25:55.850Z,101062.47
2022-10-14T03:26:58.150Z,101059.83
2022-10-14T03:28:00.303Z,101064.22
2022-10-14T03:29:02.189Z,101065.19
2022-10-14T03:30:05.302Z,101057.23
2022-10-14T03:31:07.496Z,101057.45
2022-10-14T03:32:09.440Z,101065.36
2022-10-14T03:33:14.755Z,101056.30
2022-10-14T03:34:15.140Z,101064.30
2022-10-14T03:35:17.264Z,101061.75
2022-10-14T03:36:19.353Z,101059.03
2022-10-14T03:37:21.306Z,101058.31
2022-10-14T03:38:23.424Z,101060.48
2022-10-14T03:39:25.320Z,101068.39
2022-10-14T03:40:27.569Z,101057.80
2022-10-14T03:41:29.812Z,101062.98
2022-10-14T03:42:31.702Z,101065.62
2022-10-14T03:43:33.891Z,101061.23
2022-10-14T03:44:35.791Z,101066.44
2022-10-14T03:45:37.920Z,101060.14
2022-10-14T03:46:40.146Z,101057.41
2022-10-14T03:47:42.044Z,101057.41
2022-10-14T03:48:44.230Z,101057.28
2022-10-14T03:49:46.354Z,101057.67
2022-10-14T03:50:48.488Z,101058.39
2022-10-14T03:51:50.725Z,101061.08
2022-10-14T03:52:55.594Z,101062.86
2022-10-14T03:53:56.428Z,101056.64
2022-10-14T03:54:58.870Z,101060.09
2022-10-14T03:56:01.086Z,101055.77
2022-10-14T03:57:03.139Z,101062.73
2022-10-14T03:58:05.229Z,101061.75
2022-10-14T03:59:07.448Z,101053.08
2022-10-14T04:00:12.936Z,101062.86
2022-10-14T04:01:15.170Z,101062.01
2022-10-14T04:02:17.062Z,101062.77
2022-10-14T04:03:19.159Z,101065.45
2022-10-14T04:04:21.075Z,101062.77
2022-10-14T04:05:22.945Z,101059.28
2022-10-14T04:06:24.972Z,101063.54
2022-10-14T04:07:27.184Z,101060.98
2022-10-14T04:08:29.176Z,101058.39
2022-10-14T04:09:31.240Z,101053.97
2022-10-14T04:10:33.777Z,101056.69
2022-10-14T04:11:35.780Z,101054.99
2022-10-14T04:12:37.749Z,101060.91
2022-10-14T04:13:39.953Z,101051.20
2022-10-14T04:14:41.879Z,101063.71
2022-10-14T04:15:43.774Z,101058.36
2022-10-14T04:16:49.635Z,101063.16
2022-10-14T04:17:49.859Z,101063.92
2022-10-14T04:18:52.490Z,101065.36
2022-10-14T04:19:54.430Z,101045.55
2022-10-14T04:21:05.558Z,101065.32
2022-10-14T04:22:07.641Z,101065.49
2022-10-14T04:23:09.655Z,101069.66
2022-10-14T04:24:12.135Z,101072.51
2022-10-14T04:25:14.202Z,101064.55
2022-10-14T04:26:16.927Z,101064.64
2022-10-14T04:27:18.793Z,101062.73
2022-10-14T04:28:20.943Z,101060.95
2022-10-14T04:29:23.375Z,101056.64
2022-10-14T04:30:25.581Z,101058.36
2022-10-14T04:31:27.688Z,101057.45
2022-10-14T04:32:29.663Z,101056.69
2022-10-14T04:33:31.551Z,101061.08
2022-10-14T04:34:33.563Z,101053.25
2022-10-14T04:35:35.489Z,101058.48
2022-10-14T04:36:37.914Z,101057.59
2022-10-14T04:37:40.232Z,101057.59
2022-10-14T04:38:42.824Z,101058.53
2022-10-14T04:39:45.380Z,101062.14
2022-10-14T04:40:47.389Z,101062.91
2022-10-14T04:41:49.297Z,101066.30
2022-10-14T04:42:55.569Z,101068.26
2022-10-14T04:43:58.755Z,101063.95
2022-10-14T04:45:02.139Z,101069.19
2022-10-14T04:46:04.426Z,101065.84
2022-10-14T04:47:06.352Z,101071.31
2022-10-14T04:48:08.403Z,101069.36
2022-10-14T04:49:13.276Z,101070.21
2022-10-14T04:50:17.382Z,101057.25
2022-10-14T04:51:19.424Z,101076.94
2022-10-14T04:52:23.624Z,101073.41
2022-10-14T04:53:25.913Z,101074.26
2022-10-14T04:54:27.796Z,101066.34
2022-10-14T04:55:29.754Z,101068.94
2022-10-14T04:56:31.741Z,101070.64
2022-10-14T04:57:33.621Z,101069.78
2022-10-14T04:58:35.735Z,101073.23
2022-10-14T04:59:37.655Z,101072.38
2022-10-14T05:00:41.525Z,101067.95
2022-10-14T05:01:43.499Z,101064.47
2022-10-14T05:02:45.850Z,101075.91
2022-10-14T05:03:47.866Z,101070.64
2022-10-14T05:04:49.742Z,101071.41
2022-10-14T05:05:51.725Z,101067.02
2022-10-14T05:06:53.809Z,101071.09
2022-10-14T05:08:04.266Z,101068.72
2022-10-14T05:09:07.323Z,101072.38
2022-10-14T05:10:10.327Z,101072.29
2022-10-14T05:11:13.472Z,101071.36
2022-10-14T05:12:15.458Z,101075.70
2022-10-14T05:13:18.070Z,101069.73
2022-10-14T05:14:19.956Z,101075.02
2022-10-14T05:15:22.278Z,101082.67
2022-10-14T05:16:24.416Z,101069.48
2022-10-14T05:17:26.510Z,101076.41
2022-10-14T05:18:28.588Z,101080.63
2022-10-14T05:19:30.608Z,101077.09
2022-10-14T05:20:32.750Z,101079.81
2022-10-14T05:21:34.696Z,101083.27
2022-10-14T05:22:36.816Z,101081.47
2022-10-14T05:23:38.818Z,101078.83
2022-10-14T05:24:40.908Z,101090.23
2022-10-14T05:25:42.810Z,101084.91
2022-10-14T05:26:44.878Z,101088.31
2022-10-14T05:27:46.773Z,101082.09
2022-10-14T05:28:51.335Z,101080.36
2022-10-14T05:29:53.601Z,101089.11
2022-10-14T05:30:55.614Z,101087.38
2022-10-14T05:31:57.528Z,101089.83
2022-10-14T05:32:59.411Z,101089.74
2022-10-14T05:34:01.389Z,101096.81
2022-10-14T05:35:04.311Z,101087.95
2022-10-14T05:36:07.629Z,101087.20
2022-10-14T05:37:09.616Z,101094.09
2022-10-14T05:38:13.227Z,101091.22
2022-10-14T05:39:18.369Z,101090.45
2022-10-14T05:40:21.908Z,101099.27
2022-10-14T05:41:27.064Z,101086.80
2022-10-14T05:42:29.247Z,101092.96
2022-10-14T05:43:32.837Z,101099.72
2022-10-14T05:44:35.174Z,101095.46
2022-10-14T05:45:37.046Z,101094.58
2022-10-14T05:46:39.071Z,101097.26
2022-10-14T05:47:43.142Z,101105.13
2022-10-14T05:48:45.053Z,101103.23
2022-10-14T05:49:46.957Z,101097.96
2022-10-14T05:50:49.061Z,101104.09
2022-10-14T05:51:51.146Z,101100.64
2022-10-14T05:52:53.017Z,101105.80
2022-10-14T05:53:55.011Z,101105.70
2022-10-14T05:54:56.882Z,101098.53
2022-10-14T05:56:04.716Z,101101.08
2022-10-14T05:57:06.777Z,101097.70
2022-10-14T05:58:09.030Z,101102.08
2022-10-14T05:59:13.026Z,101101.94
2022-10-14T06:00:15.833Z,101094.68
2022-10-14T06:01:17.722Z,101099.16
2022-10-14T06:02:19.966Z,101102.59
2022-10-14T06:03:22.264Z,101103.41
2022-10-14T06:04:24.392Z,101102.36
2022-10-14T06:05:26.997Z,101104.76
2022-10-14T06:06:29.293Z,101103.06
2022-10-14T06:07:31.339Z,101103.21
2022-10-14T06:08:33.336Z,101108.40
2022-10-14T06:09:36.505Z,101107.50
2022-10-14T06:10:38.514Z,101102.17
2022-10-14T06:11:40.698Z,101041.76
2022-10-14T06:12:42.580Z,101105.61
2022-10-14T06:13:44.488Z,101108.16
2022-10-14T06:14:46.399Z,101106.42
2022-10-14T06:15:48.422Z,101102.02
2022-10-14T06:16:50.793Z,101107.35
2022-10-14T06:17:52.881Z,101112.68
2022-10-14T06:18:55.094Z,101110.60
2022-10-14T06:19:56.995Z,101110.75
2022-10-14T06:20:59.933Z,101108.91
2022-10-14T06:22:01.826Z,101111.45
2022-10-14T06:23:04.115Z,101115.09
2022-10-14T06:24:06.722Z,101110.55
2022-10-14T06:25:09.019Z,101114.90
2022-10-14T06:26:12.219Z,101113.09
2022-10-14T06:27:14.103Z,101110.99
2022-10-14T06:28:16.018Z,101114.44
2022-10-14T06:29:18.177Z,101110.11
2022-10-14T06:30:20.880Z,101109.26
2022-10-14T06:31:23.237Z,101108.41
2022-10-14T06:32:25.312Z,101110.89
2022-10-14T06:33:30.790Z,101113.41
2022-10-14T06:34:34.353Z,101115.99
2022-10-14T06:35:36.362Z,101111.55
2022-10-14T06:36:38.361Z,101110.56
2022-10-14T06:37:40.352Z,101118.33
2022-10-14T06:38:42.599Z,101112.25
2022-10-14T06:39:44.508Z,101115.64
2022-10-14T06:40:52.286Z,101109.50
2022-10-14T06:41:54.264Z,101118.59
2022-10-14T06:42:57.966Z,101115.84
2022-10-14T06:44:00.038Z,101116.73
2022-10-14T06:45:02.149Z,101111.20
2022-10-14T06:46:04.847Z,101117.12
2022-10-14T06:47:06.996Z,101112.48
2022-10-14T06:48:09.015Z,101116.83
2022-10-14T06:49:11.128Z,101115.93
2022-10-14T06:50:13.116Z,101095.05
2022-10-14T06:51:15.404Z,101111.13
2022-10-14T06:52:18.108Z,101096.41
2022-10-14T06:53:21.152Z,101110.17
2022-10-14T06:54:23.333Z,101112.66
2022-10-14T06:55:25.540Z,101110.59
2022-10-14T06:56:27.570Z,101112.30
2022-10-14T06:57:29.549Z,101117.48
2022-10-14T06:58:32.482Z,101114.56
2022-10-14T06:59:34.443Z,101109.91
2022-10-14T07:00:36.622Z,101111.70
2022-10-14T07:01:38.873Z,101108.89
2022-10-14T07:02:41.128Z,101112.11
2022-10-14T07:03:43.066Z,101109.23
2022-10-14T07:04:45.057Z,101114.42
2022-10-14T07:05:47.096Z,101103.46
2022-10-14T07:06:49.282Z,101102.44
2022-10-14T07:07:51.355Z,101113.41
2022-10-14T07:08:53.302Z,101101.86
2022-10-14T07:09:55.296Z,101111.50
2022-10-14T07:10:57.760Z,101100.67
2022-10-14T07:11:59.974Z,101102.30
2022-10-14T07:13:02.375Z,101106.17
2022-10-14T07:14:04.284Z,101102.16
2022-10-14T07:15:07.426Z,101107.64
2022-10-14T07:16:09.745Z,101098.05
2022-10-14T07:17:13.021Z,101096.98
2022-10-14T07:18:15.387Z,101098.53
2022-10-14T07:19:17.364Z,101100.45
2022-10-14T07:20:19.411Z,101103.28
2022-10-14T07:21:21.467Z,101097.74
2022-10-14T07:22:23.844Z,101096.12
2022-10-14T07:23:26.187Z,101093.48
2022-10-14T07:24:28.216Z,101097.74
2022-10-14T07:25:30.299Z,101094.15
2022-10-14T07:26:32.586Z,101090.34
2022-10-14T07:27:34.767Z,101095.52
2022-10-14T07:28:36.847Z,101092.94
2022-10-14T07:29:38.894Z,101091.55
2022-10-14T07:30:41.097Z,101089.17
2022-10-14T07:31:43.589Z,101091.63
2022-10-14T07:32:45.691Z,101091.75
2022-10-14T07:33:47.803Z,101091.43
2022-10-14T07:34:51.338Z,101096.73
2022-10-14T07:35:53.526Z,101096.66
2022-10-14T07:36:55.544Z,101092.02
2022-10-14T07:37:58.667Z,101088.58
2022-10-14T07:39:00.880Z,101090.48
2022-10-14T07:40:04.780Z,101095.33
2022-10-14T07:41:09.989Z,101083.11
2022-10-14T07:42:12.031Z,101089.37
2022-10-14T07:43:14.151Z,101035.95
2022-10-14T07:44:16.548Z,101080.00
2022-10-14T07:45:18.552Z,101087.02
2022-10-14T07:46:23.472Z,101085.09
2022-10-14T07:47:25.393Z,101082.52
2022-10-14T07:48:38.496Z,101088.81
2022-10-14T07:49:33.715Z,101093.34
2022-10-14T07:50:35.713Z,101082.88
2022-10-14T07:51:38.853Z,101085.52
2022-10-14T07:52:40.745Z,101088.59
2022-10-14T07:53:42.682Z,101085.94
2022-10-14T07:54:45.363Z,101089.97
2022-10-14T07:55:47.357Z,101091.59
2022-10-14T07:56:49.860Z,101085.58
2022-10-14T07:57:51.756Z,101089.97
2022-10-14T07:58:54.854Z,101090.81
2022-10-14T07:59:56.843Z,101094.32
2022-10-14T08:00:59.041Z,101088.88
2022-10-14T08:02:01.328Z,101090.03
2022-10-14T08:03:03.579Z,101092.31
2022-10-14T08:04:05.472Z,101091.53
2022-10-14T08:05:32.980Z,101083.36
2022-10-14T08:06:12.923Z,101091.11
2022-10-14T08:07:14.858Z,101084.57
2022-10-14T08:08:17.916Z,101087.97
2022-10-14T08:09:20.541Z,101085.17
2022-10-14T08:10:22.852Z,101085.66
2022-10-14T08:11:27.356Z,101087.08
2022-10-14T08:12:29.726Z,101081.91
2022-10-14T08:13:32.715Z,101086.58
2022-10-14T08:14:34.625Z,101084.88
2022-10-14T08:15:39.245Z,101086.88
2022-10-14T08:16:41.271Z,101090.55
2022-10-14T08:17:43.605Z,101090.55
2022-10-14T08:18:47.263Z,101087.75
2022-10-14T08:19:50.251Z,101085.45
2022-10-14T08:20:52.671Z,101084.15
2022-10-14T08:21:54.558Z,101088.53
2022-10-14T08:22:56.459Z,101087.44
2022-10-14T08:23:58.639Z,101083.22
2022-10-14T08:25:00.508Z,101087.16
2022-10-14T08:26:03.456Z,101087.22
2022-10-14T08:27:05.383Z,101085.81
2022-10-14T08:28:07.909Z,101091.19
2022-10-14T08:29:10.711Z,101084.64
2022-10-14T08:30:12.895Z,101082.80
2022-10-14T08:31:17.167Z,101081.98
2022-10-14T08:32:19.387Z,101092.47
2022-10-14T08:33:21.692Z,101087.22
2022-10-14T08:34:23.772Z,101081.98
2022-10-14T08:35:25.805Z,101087.44
2022-10-14T08:36:28.179Z,101087.52
2022-10-14T08:37:30.139Z,101083.79
2022-10-14T08:38:32.426Z,101075.12
2022-10-14T08:39:34.338Z,101075.12
2022-10-14T08:41:15.175Z,101080.36
2022-10-14T08:42:24.338Z,101084.28
2022-10-14T08:43:47.158Z,101089.59
2022-10-14T08:44:52.835Z,101083.86
2022-10-14T08:45:58.526Z,101083.15
2022-10-14T08:47:04.206Z,101092.33
2022-10-14T08:48:12.772Z,101089.45
2022-10-14T08:49:40.019Z,101091.97
2022-10-14T08:52:10.767Z,101088.91
2022-10-14T08:53:25.956Z,101081.78
2022-10-14T08:54:43.192Z,101083.41
2022-10-14T08:55:48.499Z,101082.53
2022-10-14T08:56:51.962Z,101084.19
2022-10-14T08:58:00.421Z,101082.53
2022-10-14T08:59:09.151Z,101080.24
2022-10-14T09:00:13.371Z,101082.20
2022-10-14T09:01:19.472Z,101081.20
2022-10-14T09:02:45.886Z,101081.13
2022-10-14T09:03:48.816Z,101084.15
2022-10-14T09:04:50.903Z,101081.49
2022-10-14T09:05:58.795Z,101080.72
2022-10-14T09:07:02.527Z,101088.27
2022-10-14T09:08:05.432Z,101090.67
2022-10-14T09:09:28.160Z,101083.52
2022-10-14T09:10:33.460Z,101087.44
2022-10-14T09:11:42.070Z,101089.58
2022-10-14T09:12:44.644Z,101086.92
2022-10-14T09:13:50.395Z,101083.30
2022-10-14T09:15:05.273Z,101079.39
2022-10-14T09:17:24.935Z,101080.34
2022-10-14T09:18:36.261Z,101081.67
2022-10-14T09:19:39.874Z,101085.95
2022-10-14T09:20:43.203Z,101078.09
2022-10-14T09:21:53.894Z,101082.93
2022-10-14T09:23:05.440Z,101074.88
2022-10-14T09:24:17.212Z,101078.57
2022-10-14T09:25:19.222Z,101082.45
2022-10-14T09:26:21.198Z,101079.72
2022-10-14T09:27:23.923Z,101083.66
2022-10-14T09:28:42.063Z,101077.61
2022-10-14T09:29:56.910Z,101085.28
2022-10-14T09:30:59.081Z,101081.23
2022-10-14T09:32:07.230Z,101085.44
2022-10-14T09:33:12.968Z,101078.34
2022-10-14T09:34:20.270Z,101078.57
2022-10-14T09:35:32.224Z,101077.54
2022-10-14T09:36:34.344Z,101077.61
2022-10-14T09:37:36.551Z,101079.20
2022-10-14T09:38:38.651Z,101079.34
2022-10-14T09:39:41.113Z,101069.31
2022-10-14T09:40:46.592Z,101068.24
2022-10-14T09:41:52.297Z,101071.30
2022-10-14T09:43:06.846Z,101068.69
2022-10-14T09:44:18.953Z,101064.95
2022-10-14T09:45:23.613Z,101066.38
2022-10-14T09:46:25.913Z,101058.41
2022-10-14T09:47:28.430Z,101067.95
2022-10-14T09:48:45.875Z,101063.25
2022-10-14T09:49:48.112Z,101076.09
2022-10-14T09:50:53.921Z,101062.64
2022-10-14T09:51:56.749Z,101064.64
2022-10-14T09:53:09.252Z,101059.72
2022-10-14T09:54:12.536Z,101055.44
2022-10-14T09:55:18.208Z,101063.27
2022-10-14T09:56:41.588Z,101053.70
2022-10-14T09:57:42.023Z,101053.86
2022-10-14T09:58:47.126Z,101056.29
2022-10-14T09:59:52.719Z,101057.14
2022-10-14T10:00:56.894Z,101061.37
2022-10-14T10:02:02.298Z,101062.64
2022-10-14T10:03:05.416Z,101064.49
2022-10-14T10:04:32.663Z,101067.95
2022-10-14T10:05:35.571Z,101059.80
2022-10-14T10:06:41.349Z,101059.95
2022-10-14T10:07:43.477Z,101059.41
2022-10-14T10:08:58.880Z,101062.15
2022-10-14T10:10:04.077Z,101059.80
2022-10-14T10:12:38.813Z,101050.97
2022-10-14T10:13:43.960Z,101055.13
2022-10-14T10:14:49.640Z,101020.73
2022-10-14T10:15:58.324Z,101054.09
2022-10-14T10:17:13.289Z,101054.09
2022-10-14T10:18:18.989Z,101060.98
2022-10-14T10:19:27.456Z,101053.78
2022-10-14T10:20:30.366Z,101058.41
2022-10-14T10:21:32.522Z,101048.77
2022-10-14T10:22:34.820Z,101049.31
2022-10-14T10:23:41.289Z,101053.78
2022-10-14T10:24:46.304Z,101051.66
2022-10-14T10:25:48.531Z,101049.23
2022-10-14T10:26:51.049Z,101043.69
2022-10-14T10:27:56.647Z,101041.48
2022-10-14T10:29:02.278Z,101046.56
2022-10-14T10:30:19.884Z,101048.13
2022-10-14T10:31:29.051Z,101055.66
2022-10-14T10:32:37.863Z,101058.63
2022-10-14T10:33:52.574Z,101051.58
2022-10-14T10:35:07.495Z,101056.12
2022-10-14T10:36:14.498Z,101049.50
2022-10-14T10:37:38.161Z,101052.55
2022-10-14T10:39:18.900Z,101045.73
2022-10-14T10:40:27.735Z,101055.91
2022-10-14T10:42:02.389Z,101048.31
2022-10-14T10:43:08.441Z,101036.91
2022-10-14T10:44:16.917Z,101053.23
2022-10-14T10:45:51.912Z,101053.16
2022-10-14T10:47:04.006Z,101042.36
2022-10-14T10:48:15.473Z,101046.33
2022-10-14T10:49:47.444Z,101044.11
2022-10-14T10:50:53.397Z,101041.97
2022-10-14T10:53:21.102Z,101041.23
2022-10-14T10:54:35.341Z,101039.17
2022-10-14T10:55:58.927Z,101041.91
2022-10-14T10:57:11.446Z,101036.52
2022-10-14T10:58:37.310Z,101036.24
2022-10-14T10:59:48.531Z,101037.89
2022-10-14T11:00:58.402Z,101040.31
2022-10-14T11:02:21.169Z,101034.14
2022-10-14T11:03:30.373Z,101035.69
2022-10-14T11:04:57.033Z,101030.36
2022-10-14T11:06:30.499Z,101029.59
2022-10-14T11:07:45.294Z,101037.41
2022-10-14T11:08:56.922Z,101035.23
2022-10-14T11:10:15.186Z,101034.78
2022-10-14T11:11:42.640Z,101030.63
2022-10-14T11:12:54.270Z,101035.86
2022-10-14T11:14:12.050Z,101034.94
2022-10-14T11:15:33.238Z,101025.23
2022-10-14T11:16:57.371Z,101030.97
2022-10-14T11:18:06.366Z,101021.50
2022-10-14T11:19:21.157Z,101023.38
2022-10-14T11:20:45.214Z,101021.81
2022-10-14T11:22:21.902Z,101013.91
2022-10-14T11:23:50.796Z,101020.42
2022-10-14T11:25:16.592Z,101017.69
2022-10-14T11:26:39.282Z,101012.91
2022-10-14T11:27:45.063Z,101014.83
2022-10-14T11:29:03.279Z,101009.35
2022-10-14T11:30:17.879Z,101010.08
2022-10-14T11:31:35.844Z,101011.00
2022-10-14T11:32:41.521Z,101008.34
2022-10-14T11:34:20.653Z,101009.27
2022-10-14T11:35:29.448Z,101003.64
2022-10-14T11:36:41.265Z,101012.23
2022-10-14T11:38:06.769Z,100999.48
2022-10-14T11:39:30.683Z,101007.39
2022-10-14T11:40:55.529Z,101007.47
2022-10-14T11:43:24.878Z,100992.48
2022-10-14T11:45:42.509Z,100994.66
2022-10-14T11:46:48.286Z,100994.25
2022-10-14T11:47:52.801Z,100988.77
2022-10-14T11:49:01.228Z,100998.61
2022-10-14T11:50:07.171Z,100990.79
2022-10-14T11:51:12.933Z,101005.34
2022-10-14T11:52:21.519Z,101004.81
2022-10-14T11:53:46.627Z,100927.64
2022-10-14T11:54:52.369Z,100997.55
2022-10-14T11:56:04.016Z,101005.17
2022-10-14T11:57:25.287Z,101002.20
2022-10-14T11:58:30.523Z,100977.67
2022-10-14T12:00:02.033Z,100932.11
2022-10-14T12:01:17.794Z,101005.45
2022-10-14T12:02:29.457Z,100999.97
2022-10-14T12:03:38.240Z,101001.59
2022-10-14T12:04:43.861Z,100993.40
2022-10-14T12:05:52.621Z,101001.30
2022-10-14T12:07:04.589Z,100990.18
2022-10-14T12:08:30.419Z,100989.53
2022-10-14T12:09:41.095Z,100978.02
2022-10-14T12:10:44.927Z,100981.96
2022-10-14T12:11:50.790Z,100986.43
2022-10-14T12:12:55.104Z,100969.91
2022-10-14T12:14:22.286Z,100984.44
2022-10-14T12:15:26.244Z,100990.05
2022-10-14T12:16:29.007Z,100980.16
2022-10-14T12:17:37.584Z,100980.16
2022-10-14T12:18:41.770Z,100985.14
2022-10-14T12:19:44.177Z,100987.04
2022-10-14T12:21:02.117Z,100982.05
2022-10-14T12:22:07.841Z,100979.06
2022-10-14T12:23:13.521Z,100978.90
2022-10-14T12:24:22.351Z,100975.63
2022-10-14T12:25:27.984Z,100979.06
2022-10-14T12:26:39.116Z,100985.42
2022-10-14T12:27:41.434Z,100973.00
2022-10-14T12:28:43.877Z,100977.45
2022-10-14T12:29:49.068Z,100972.72
2022-10-14T12:30:51.099Z,100980.79
2022-10-14T12:32:08.992Z,100969.63
2022-10-14T12:33:14.077Z,100972.45
2022-10-14T12:34:33.265Z,100972.37
2022-10-14T12:35:56.119Z,100971.00
2022-10-14T12:36:58.196Z,100970.84
2022-10-14T12:38:02.548Z,100970.67
2022-10-14T12:39:20.307Z,100966.53
2022-10-14T12:40:25.824Z,100974.59
2022-10-14T12:41:40.049Z,100969.11
2022-10-14T12:42:45.725Z,100961.20
2022-10-14T12:44:03.323Z,100972.53
2022-10-14T12:45:24.099Z,100968.09